sensor_id;sensor_type;location;lat;lon;timestamp;P1;durP1;ratioP1;P2;durP2;ratioP2
13435;SDS011;6790;49.520;8.504;2022-08-27T00:01:39;13.50;;;7.75;;
13435;SDS011;6790;49.520;8.504;2022-08-27T00:04:05;7.38;;;6.50;;
13435;SDS011;6790;49.520;8.504;2022-08-27T00:06:31;8.48;;;6.60;;
13435;SDS011;6790;49.520;8.504;2022-08-27T00:08:56;11.48;;;7.25;;
13435;SDS011;6790;49.520;8.504;2022-08-27T00:11:22;8.93;;;7.05;;
13435;SDS011;6790;49.520;8.504;2022-08-27T00:13:52;7.93;;;6.75;;
13435;SDS011;6790;49.520;8.504;2022-08-27T00:16:17;7.82;;;6.57;;
13435;SDS011;6790;49.520;8.504;2022-08-27T00:18:44;7.93;;;6.78;;
13435;SDS011;6790;49.520;8.504;2022-08-27T00:21:12;9.35;;;6.60;;
13435;SDS011;6790;49.520;8.504;2022-08-27T00:23:38;7.15;;;6.30;;
13435;SDS011;6790;49.520;8.504;2022-08-27T00:26:05;12.60;;;6.82;;
13435;SDS011;6790;49.520;8.504;2022-08-27T00:28:32;9.07;;;6.35;;
13435;SDS011;6790;49.520;8.504;2022-08-27T00:30:58;7.53;;;6.80;;
13435;SDS011;6790;49.520;8.504;2022-08-27T00:33:24;11.07;;;6.90;;
13435;SDS011;6790;49.520;8.504;2022-08-27T00:35:51;11.93;;;7.00;;
13435;SDS011;6790;49.520;8.504;2022-08-27T00:38:18;10.52;;;6.53;;
13435;SDS011;6790;49.520;8.504;2022-08-27T00:40:46;7.80;;;6.35;;
13435;SDS011;6790;49.520;8.504;2022-08-27T00:43:12;13.73;;;7.20;;
13435;SDS011;6790;49.520;8.504;2022-08-27T00:45:48;7.22;;;6.38;;
13435;SDS011;6790;49.520;8.504;2022-08-27T00:48:16;8.77;;;7.10;;
13435;SDS011;6790;49.520;8.504;2022-08-27T00:50:46;8.93;;;6.82;;
13435;SDS011;6790;49.520;8.504;2022-08-27T00:53:20;7.68;;;6.88;;
13435;SDS011;6790;49.520;8.504;2022-08-27T00:56:00;7.00;;;6.22;;
13435;SDS011;6790;49.520;8.504;2022-08-27T00:58:37;9.23;;;6.57;;
13435;SDS011;6790;49.520;8.504;2022-08-27T01:01:10;11.65;;;7.78;;
13435;SDS011;6790;49.520;8.504;2022-08-27T01:03:40;9.63;;;7.28;;
13435;SDS011;6790;49.520;8.504;2022-08-27T01:06:17;8.30;;;6.85;;
13435;SDS011;6790;49.520;8.504;2022-08-27T01:08:50;9.63;;;6.85;;
13435;SDS011;6790;49.520;8.504;2022-08-27T01:11:21;9.05;;;6.40;;
13435;SDS011;6790;49.520;8.504;2022-08-27T01:13:49;9.05;;;6.85;;
13435;SDS011;6790;49.520;8.504;2022-08-27T01:16:20;9.40;;;6.97;;
13435;SDS011;6790;49.520;8.504;2022-08-27T01:18:50;9.82;;;6.78;;
13435;SDS011;6790;49.520;8.504;2022-08-27T01:21:23;9.88;;;6.80;;
13435;SDS011;6790;49.520;8.504;2022-08-27T01:26:56;8.55;;;6.47;;
13435;SDS011;6790;49.520;8.504;2022-08-27T01:29:23;21.50;;;13.02;;
13435;SDS011;6790;49.520;8.504;2022-08-27T01:31:49;15.98;;;10.90;;
13435;SDS011;6790;49.520;8.504;2022-08-27T01:34:15;13.63;;;8.43;;
13435;SDS011;6790;49.520;8.504;2022-08-27T01:36:41;10.45;;;7.60;;
13435;SDS011;6790;49.520;8.504;2022-08-27T01:39:07;8.98;;;7.43;;
13435;SDS011;6790;49.520;8.504;2022-08-27T01:41:32;11.18;;;7.32;;
13435;SDS011;6790;49.520;8.504;2022-08-27T01:43:58;9.50;;;7.03;;
13435;SDS011;6790;49.520;8.504;2022-08-27T01:46:26;14.00;;;7.43;;
13435;SDS011;6790;49.520;8.504;2022-08-27T01:48:52;10.07;;;8.13;;
13435;SDS011;6790;49.520;8.504;2022-08-27T01:51:20;7.70;;;6.75;;
13435;SDS011;6790;49.520;8.504;2022-08-27T01:53:46;8.32;;;6.65;;
13435;SDS011;6790;49.520;8.504;2022-08-27T01:56:12;9.50;;;6.70;;
13435;SDS011;6790;49.520;8.504;2022-08-27T01:58:38;11.25;;;7.70;;
13435;SDS011;6790;49.520;8.504;2022-08-27T02:01:05;8.57;;;6.68;;
13435;SDS011;6790;49.520;8.504;2022-08-27T02:03:34;11.20;;;7.25;;
13435;SDS011;6790;49.520;8.504;2022-08-27T02:06:05;9.63;;;6.95;;
13435;SDS011;6790;49.520;8.504;2022-08-27T02:08:34;8.63;;;7.05;;
13435;SDS011;6790;49.520;8.504;2022-08-27T02:11:00;9.32;;;6.85;;
13435;SDS011;6790;49.520;8.504;2022-08-27T02:13:26;7.95;;;7.15;;
13435;SDS011;6790;49.520;8.504;2022-08-27T02:15:52;10.43;;;7.38;;
13435;SDS011;6790;49.520;8.504;2022-08-27T02:18:18;8.88;;;7.03;;
13435;SDS011;6790;49.520;8.504;2022-08-27T02:20:44;10.65;;;7.65;;
13435;SDS011;6790;49.520;8.504;2022-08-27T02:23:12;11.32;;;6.70;;
13435;SDS011;6790;49.520;8.504;2022-08-27T02:25:38;7.65;;;6.82;;
13435;SDS011;6790;49.520;8.504;2022-08-27T02:28:05;9.38;;;7.68;;
13435;SDS011;6790;49.520;8.504;2022-08-27T02:30:32;7.85;;;6.82;;
13435;SDS011;6790;49.520;8.504;2022-08-27T02:32:59;8.55;;;7.20;;
13435;SDS011;6790;49.520;8.504;2022-08-27T02:35:27;7.90;;;6.18;;
13435;SDS011;6790;49.520;8.504;2022-08-27T02:37:55;9.65;;;6.22;;
13435;SDS011;6790;49.520;8.504;2022-08-27T02:40:21;9.55;;;6.55;;
13435;SDS011;6790;49.520;8.504;2022-08-27T02:42:48;9.60;;;7.07;;
13435;SDS011;6790;49.520;8.504;2022-08-27T02:45:14;8.98;;;6.70;;
13435;SDS011;6790;49.520;8.504;2022-08-27T02:47:41;9.45;;;6.60;;
13435;SDS011;6790;49.520;8.504;2022-08-27T02:50:07;9.30;;;6.97;;
13435;SDS011;6790;49.520;8.504;2022-08-27T02:52:35;10.35;;;6.28;;
13435;SDS011;6790;49.520;8.504;2022-08-27T02:55:01;9.23;;;6.63;;
13435;SDS011;6790;49.520;8.504;2022-08-27T02:57:28;9.00;;;6.25;;
13435;SDS011;6790;49.520;8.504;2022-08-27T02:59:55;9.57;;;6.97;;
13435;SDS011;6790;49.520;8.504;2022-08-27T03:02:20;9.70;;;6.85;;
13435;SDS011;6790;49.520;8.504;2022-08-27T03:04:46;14.75;;;7.28;;
13435;SDS011;6790;49.520;8.504;2022-08-27T03:07:13;8.23;;;6.60;;
13435;SDS011;6790;49.520;8.504;2022-08-27T03:09:39;10.02;;;6.70;;
13435;SDS011;6790;49.520;8.504;2022-08-27T03:12:05;6.95;;;6.13;;
13435;SDS011;6790;49.520;8.504;2022-08-27T03:14:31;8.50;;;6.80;;
13435;SDS011;6790;49.520;8.504;2022-08-27T03:16:57;10.10;;;6.90;;
13435;SDS011;6790;49.520;8.504;2022-08-27T03:19:46;9.05;;;6.80;;
13435;SDS011;6790;49.520;8.504;2022-08-27T03:22:12;9.90;;;7.10;;
13435;SDS011;6790;49.520;8.504;2022-08-27T03:24:38;9.68;;;6.88;;
13435;SDS011;6790;49.520;8.504;2022-08-27T03:27:05;8.25;;;6.25;;
13435;SDS011;6790;49.520;8.504;2022-08-27T03:29:31;12.52;;;6.93;;
13435;SDS011;6790;49.520;8.504;2022-08-27T03:31:58;8.10;;;6.45;;
13435;SDS011;6790;49.520;8.504;2022-08-27T03:34:25;7.22;;;6.30;;
13435;SDS011;6790;49.520;8.504;2022-08-27T03:36:50;8.77;;;6.60;;
13435;SDS011;6790;49.520;8.504;2022-08-27T03:39:16;12.35;;;6.85;;
13435;SDS011;6790;49.520;8.504;2022-08-27T03:41:43;7.78;;;6.35;;
13435;SDS011;6790;49.520;8.504;2022-08-27T03:44:09;9.07;;;6.15;;
13435;SDS011;6790;49.520;8.504;2022-08-27T03:46:35;11.32;;;7.00;;
13435;SDS011;6790;49.520;8.504;2022-08-27T03:49:02;12.07;;;6.93;;
13435;SDS011;6790;49.520;8.504;2022-08-27T03:51:28;9.32;;;6.65;;
13435;SDS011;6790;49.520;8.504;2022-08-27T03:53:54;8.73;;;6.50;;
13435;SDS011;6790;49.520;8.504;2022-08-27T03:56:20;10.50;;;6.85;;
13435;SDS011;6790;49.520;8.504;2022-08-27T03:58:45;7.90;;;6.47;;
13435;SDS011;6790;49.520;8.504;2022-08-27T04:01:11;9.35;;;6.88;;
13435;SDS011;6790;49.520;8.504;2022-08-27T04:03:37;8.50;;;6.45;;
13435;SDS011;6790;49.520;8.504;2022-08-27T04:06:02;8.93;;;6.30;;
13435;SDS011;6790;49.520;8.504;2022-08-27T04:08:28;10.60;;;6.50;;
13435;SDS011;6790;49.520;8.504;2022-08-27T04:10:54;9.93;;;6.57;;
13435;SDS011;6790;49.520;8.504;2022-08-27T04:13:20;7.85;;;6.35;;
13435;SDS011;6790;49.520;8.504;2022-08-27T04:15:47;8.02;;;6.38;;
13435;SDS011;6790;49.520;8.504;2022-08-27T04:18:17;13.57;;;6.57;;
13435;SDS011;6790;49.520;8.504;2022-08-27T04:20:43;9.18;;;7.07;;
13435;SDS011;6790;49.520;8.504;2022-08-27T04:23:13;9.10;;;6.88;;
13435;SDS011;6790;49.520;8.504;2022-08-27T04:25:40;8.63;;;6.68;;
13435;SDS011;6790;49.520;8.504;2022-08-27T04:28:07;12.88;;;6.95;;
13435;SDS011;6790;49.520;8.504;2022-08-27T04:30:42;7.57;;;6.78;;
13435;SDS011;6790;49.520;8.504;2022-08-27T04:33:10;8.50;;;6.80;;
13435;SDS011;6790;49.520;8.504;2022-08-27T04:35:37;9.02;;;7.05;;
13435;SDS011;6790;49.520;8.504;2022-08-27T04:38:04;9.43;;;6.75;;
13435;SDS011;6790;49.520;8.504;2022-08-27T04:40:30;8.30;;;7.47;;
13435;SDS011;6790;49.520;8.504;2022-08-27T04:43:15;8.50;;;6.70;;
13435;SDS011;6790;49.520;8.504;2022-08-27T04:45:41;7.38;;;6.50;;
13435;SDS011;6790;49.520;8.504;2022-08-27T04:48:09;8.73;;;6.50;;
13435;SDS011;6790;49.520;8.504;2022-08-27T04:50:43;9.60;;;7.20;;
13435;SDS011;6790;49.520;8.504;2022-08-27T04:53:11;10.30;;;7.20;;
13435;SDS011;6790;49.520;8.504;2022-08-27T04:55:43;7.45;;;6.60;;
13435;SDS011;6790;49.520;8.504;2022-08-27T04:58:11;8.18;;;6.65;;
13435;SDS011;6790;49.520;8.504;2022-08-27T05:00:42;9.82;;;6.65;;
13435;SDS011;6790;49.520;8.504;2022-08-27T05:03:14;8.07;;;6.57;;
13435;SDS011;6790;49.520;8.504;2022-08-27T05:05:42;10.75;;;6.80;;
13435;SDS011;6790;49.520;8.504;2022-08-27T05:08:08;7.85;;;6.80;;
13435;SDS011;6790;49.520;8.504;2022-08-27T05:10:37;9.27;;;6.65;;
13435;SDS011;6790;49.520;8.504;2022-08-27T05:13:14;13.60;;;7.38;;
13435;SDS011;6790;49.520;8.504;2022-08-27T05:15:45;8.32;;;7.20;;
13435;SDS011;6790;49.520;8.504;2022-08-27T05:18:11;8.50;;;6.93;;
13435;SDS011;6790;49.520;8.504;2022-08-27T05:20:45;9.05;;;8.00;;
13435;SDS011;6790;49.520;8.504;2022-08-27T05:23:12;8.82;;;7.32;;
13435;SDS011;6790;49.520;8.504;2022-08-27T05:25:42;13.93;;;7.95;;
13435;SDS011;6790;49.520;8.504;2022-08-27T05:28:10;9.70;;;7.53;;
13435;SDS011;6790;49.520;8.504;2022-08-27T05:30:38;9.63;;;7.55;;
13435;SDS011;6790;49.520;8.504;2022-08-27T05:33:08;11.68;;;8.23;;
13435;SDS011;6790;49.520;8.504;2022-08-27T05:35:39;11.18;;;8.15;;
13435;SDS011;6790;49.520;8.504;2022-08-27T05:38:11;12.63;;;8.05;;
13435;SDS011;6790;49.520;8.504;2022-08-27T05:40:38;10.18;;;8.02;;
13435;SDS011;6790;49.520;8.504;2022-08-27T05:43:05;9.85;;;7.93;;
13435;SDS011;6790;49.520;8.504;2022-08-27T05:45:31;10.60;;;7.85;;
13435;SDS011;6790;49.520;8.504;2022-08-27T05:47:58;11.90;;;7.68;;
13435;SDS011;6790;49.520;8.504;2022-08-27T05:50:24;9.70;;;7.47;;
13435;SDS011;6790;49.520;8.504;2022-08-27T05:52:51;11.00;;;8.40;;
13435;SDS011;6790;49.520;8.504;2022-08-27T05:55:17;8.80;;;7.90;;
13435;SDS011;6790;49.520;8.504;2022-08-27T05:57:43;11.70;;;7.68;;
13435;SDS011;6790;49.520;8.504;2022-08-27T06:00:09;12.52;;;8.75;;
13435;SDS011;6790;49.520;8.504;2022-08-27T06:02:54;14.20;;;8.13;;
13435;SDS011;6790;49.520;8.504;2022-08-27T06:05:20;13.07;;;8.30;;
13435;SDS011;6790;49.520;8.504;2022-08-27T06:07:45;12.63;;;8.13;;
13435;SDS011;6790;49.520;8.504;2022-08-27T06:10:11;12.32;;;9.30;;
13435;SDS011;6790;49.520;8.504;2022-08-27T06:12:37;11.55;;;7.72;;
13435;SDS011;6790;49.520;8.504;2022-08-27T06:15:03;11.85;;;8.52;;
13435;SDS011;6790;49.520;8.504;2022-08-27T06:17:29;10.75;;;9.18;;
13435;SDS011;6790;49.520;8.504;2022-08-27T06:19:55;11.07;;;8.73;;
13435;SDS011;6790;49.520;8.504;2022-08-27T06:22:22;9.77;;;8.52;;
13435;SDS011;6790;49.520;8.504;2022-08-27T06:24:48;9.52;;;8.40;;
13435;SDS011;6790;49.520;8.504;2022-08-27T06:27:14;9.63;;;8.43;;
13435;SDS011;6790;49.520;8.504;2022-08-27T06:29:43;12.00;;;8.77;;
13435;SDS011;6790;49.520;8.504;2022-08-27T06:32:09;8.93;;;8.02;;
13435;SDS011;6790;49.520;8.504;2022-08-27T06:34:37;13.45;;;9.05;;
13435;SDS011;6790;49.520;8.504;2022-08-27T06:37:03;10.60;;;8.27;;
13435;SDS011;6790;49.520;8.504;2022-08-27T06:39:29;13.40;;;8.73;;
13435;SDS011;6790;49.520;8.504;2022-08-27T06:41:55;13.10;;;9.10;;
13435;SDS011;6790;49.520;8.504;2022-08-27T06:44:22;13.55;;;8.30;;
13435;SDS011;6790;49.520;8.504;2022-08-27T06:46:50;9.95;;;7.97;;
13435;SDS011;6790;49.520;8.504;2022-08-27T06:49:16;11.25;;;8.23;;
13435;SDS011;6790;49.520;8.504;2022-08-27T06:51:43;10.02;;;8.00;;
13435;SDS011;6790;49.520;8.504;2022-08-27T06:54:11;10.23;;;8.32;;
13435;SDS011;6790;49.520;8.504;2022-08-27T06:56:39;15.43;;;9.27;;
13435;SDS011;6790;49.520;8.504;2022-08-27T06:59:07;10.63;;;8.43;;
13435;SDS011;6790;49.520;8.504;2022-08-27T07:01:36;8.93;;;7.47;;
13435;SDS011;6790;49.520;8.504;2022-08-27T07:04:05;10.98;;;7.90;;
13435;SDS011;6790;49.520;8.504;2022-08-27T07:06:34;9.98;;;7.70;;
13435;SDS011;6790;49.520;8.504;2022-08-27T07:09:01;12.05;;;8.70;;
13435;SDS011;6790;49.520;8.504;2022-08-27T07:11:28;11.63;;;7.75;;
13435;SDS011;6790;49.520;8.504;2022-08-27T07:13:56;9.95;;;7.45;;
13435;SDS011;6790;49.520;8.504;2022-08-27T07:16:23;12.10;;;9.05;;
13435;SDS011;6790;49.520;8.504;2022-08-27T07:18:53;11.75;;;8.73;;
13435;SDS011;6790;49.520;8.504;2022-08-27T07:21:21;10.18;;;8.00;;
13435;SDS011;6790;49.520;8.504;2022-08-27T07:23:49;11.23;;;8.07;;
13435;SDS011;6790;49.520;8.504;2022-08-27T07:26:17;11.48;;;7.45;;
13435;SDS011;6790;49.520;8.504;2022-08-27T07:28:44;11.48;;;8.20;;
13435;SDS011;6790;49.520;8.504;2022-08-27T07:31:12;11.55;;;7.75;;
13435;SDS011;6790;49.520;8.504;2022-08-27T07:33:41;12.95;;;8.18;;
13435;SDS011;6790;49.520;8.504;2022-08-27T07:36:07;8.77;;;7.53;;
13435;SDS011;6790;49.520;8.504;2022-08-27T07:38:34;9.52;;;7.65;;
13435;SDS011;6790;49.520;8.504;2022-08-27T07:41:04;8.68;;;7.57;;
13435;SDS011;6790;49.520;8.504;2022-08-27T07:43:32;9.20;;;7.47;;
13435;SDS011;6790;49.520;8.504;2022-08-27T07:46:16;12.80;;;7.85;;
13435;SDS011;6790;49.520;8.504;2022-08-27T07:48:42;11.32;;;7.35;;
13435;SDS011;6790;49.520;8.504;2022-08-27T07:51:12;8.85;;;7.20;;
13435;SDS011;6790;49.520;8.504;2022-08-27T07:53:41;8.95;;;8.02;;
13435;SDS011;6790;49.520;8.504;2022-08-27T07:56:08;10.82;;;7.78;;
13435;SDS011;6790;49.520;8.504;2022-08-27T07:58:34;8.95;;;6.97;;
13435;SDS011;6790;49.520;8.504;2022-08-27T08:01:00;10.38;;;7.20;;
13435;SDS011;6790;49.520;8.504;2022-08-27T08:03:26;11.32;;;7.22;;
13435;SDS011;6790;49.520;8.504;2022-08-27T08:05:53;10.48;;;7.22;;
13435;SDS011;6790;49.520;8.504;2022-08-27T08:08:21;11.15;;;7.55;;
13435;SDS011;6790;49.520;8.504;2022-08-27T08:10:47;8.85;;;6.78;;
13435;SDS011;6790;49.520;8.504;2022-08-27T08:13:14;9.80;;;7.00;;
13435;SDS011;6790;49.520;8.504;2022-08-27T08:15:45;7.95;;;6.70;;
13435;SDS011;6790;49.520;8.504;2022-08-27T08:18:11;11.30;;;7.13;;
13435;SDS011;6790;49.520;8.504;2022-08-27T08:20:37;8.65;;;6.80;;
13435;SDS011;6790;49.520;8.504;2022-08-27T08:23:04;9.75;;;6.88;;
13435;SDS011;6790;49.520;8.504;2022-08-27T08:25:31;8.60;;;7.25;;
13435;SDS011;6790;49.520;8.504;2022-08-27T08:27:57;8.38;;;6.78;;
13435;SDS011;6790;49.520;8.504;2022-08-27T08:30:24;9.68;;;6.60;;
13435;SDS011;6790;49.520;8.504;2022-08-27T08:32:50;9.35;;;6.78;;
13435;SDS011;6790;49.520;8.504;2022-08-27T08:35:16;11.18;;;6.35;;
13435;SDS011;6790;49.520;8.504;2022-08-27T08:37:42;11.57;;;7.00;;
13435;SDS011;6790;49.520;8.504;2022-08-27T08:40:09;9.88;;;7.18;;
13435;SDS011;6790;49.520;8.504;2022-08-27T08:42:52;11.00;;;7.53;;
13435;SDS011;6790;49.520;8.504;2022-08-27T08:45:22;8.70;;;6.57;;
13435;SDS011;6790;49.520;8.504;2022-08-27T08:47:55;12.20;;;7.50;;
13435;SDS011;6790;49.520;8.504;2022-08-27T08:50:52;9.82;;;6.78;;
13435;SDS011;6790;49.520;8.504;2022-08-27T08:56:08;9.88;;;6.90;;
13435;SDS011;6790;49.520;8.504;2022-08-27T08:58:46;11.55;;;6.85;;
13435;SDS011;6790;49.520;8.504;2022-08-27T09:01:20;9.18;;;6.50;;
13435;SDS011;6790;49.520;8.504;2022-08-27T09:03:50;9.25;;;6.57;;
13435;SDS011;6790;49.520;8.504;2022-08-27T09:09:14;11.77;;;6.93;;
13435;SDS011;6790;49.520;8.504;2022-08-27T09:11:58;9.00;;;6.63;;
13435;SDS011;6790;49.520;8.504;2022-08-27T09:14:35;9.30;;;7.30;;
13435;SDS011;6790;49.520;8.504;2022-08-27T09:17:30;8.93;;;6.60;;
13435;SDS011;6790;49.520;8.504;2022-08-27T09:19:57;8.50;;;6.55;;
13435;SDS011;6790;49.520;8.504;2022-08-27T09:22:28;8.40;;;6.82;;
13435;SDS011;6790;49.520;8.504;2022-08-27T09:25:31;12.88;;;6.85;;
13435;SDS011;6790;49.520;8.504;2022-08-27T09:28:04;11.43;;;6.50;;
13435;SDS011;6790;49.520;8.504;2022-08-27T09:30:58;11.27;;;6.35;;
13435;SDS011;6790;49.520;8.504;2022-08-27T09:33:30;9.15;;;6.28;;
13435;SDS011;6790;49.520;8.504;2022-08-27T09:35:59;11.75;;;6.70;;
13435;SDS011;6790;49.520;8.504;2022-08-27T09:38:33;9.23;;;6.32;;
13435;SDS011;6790;49.520;8.504;2022-08-27T09:41:00;8.07;;;7.18;;
13435;SDS011;6790;49.520;8.504;2022-08-27T09:43:31;10.52;;;6.85;;
13435;SDS011;6790;49.520;8.504;2022-08-27T09:46:01;11.02;;;6.75;;
13435;SDS011;6790;49.520;8.504;2022-08-27T09:48:43;10.23;;;6.82;;
13435;SDS011;6790;49.520;8.504;2022-08-27T09:51:10;8.02;;;6.22;;
13435;SDS011;6790;49.520;8.504;2022-08-27T09:53:48;10.35;;;6.25;;
13435;SDS011;6790;49.520;8.504;2022-08-27T09:56:38;8.98;;;5.93;;
13435;SDS011;6790;49.520;8.504;2022-08-27T09:59:19;11.18;;;6.68;;
13435;SDS011;6790;49.520;8.504;2022-08-27T10:02:05;7.30;;;6.53;;
13435;SDS011;6790;49.520;8.504;2022-08-27T10:04:45;8.70;;;6.85;;
13435;SDS011;6790;49.520;8.504;2022-08-27T10:10:21;7.53;;;6.10;;
13435;SDS011;6790;49.520;8.504;2022-08-27T10:13:12;8.40;;;6.35;;
13435;SDS011;6790;49.520;8.504;2022-08-27T10:27:42;8.63;;;6.10;;
13435;SDS011;6790;49.520;8.504;2022-08-27T10:30:20;7.25;;;6.03;;
13435;SDS011;6790;49.520;8.504;2022-08-27T10:41:54;11.55;;;6.80;;
13435;SDS011;6790;49.520;8.504;2022-08-27T10:53:29;7.82;;;5.95;;
13435;SDS011;6790;49.520;8.504;2022-08-27T10:56:12;7.95;;;6.43;;
13435;SDS011;6790;49.520;8.504;2022-08-27T11:02:14;10.18;;;6.30;;
13435;SDS011;6790;49.520;8.504;2022-08-27T11:05:17;8.27;;;5.75;;
13435;SDS011;6790;49.520;8.504;2022-08-27T11:07:50;12.32;;;6.72;;
13435;SDS011;6790;49.520;8.504;2022-08-27T11:10:23;7.43;;;5.85;;
13435;SDS011;6790;49.520;8.504;2022-08-27T11:12:56;9.63;;;6.43;;
13435;SDS011;6790;49.520;8.504;2022-08-27T11:15:33;7.43;;;5.70;;
13435;SDS011;6790;49.520;8.504;2022-08-27T11:18:14;9.00;;;6.32;;
13435;SDS011;6790;49.520;8.504;2022-08-27T11:21:07;10.15;;;6.15;;
13435;SDS011;6790;49.520;8.504;2022-08-27T11:24:21;9.23;;;6.65;;
13435;SDS011;6790;49.520;8.504;2022-08-27T11:26:58;6.82;;;5.53;;
13435;SDS011;6790;49.520;8.504;2022-08-27T11:29:44;8.02;;;5.97;;
13435;SDS011;6790;49.520;8.504;2022-08-27T11:32:33;7.00;;;6.13;;
13435;SDS011;6790;49.520;8.504;2022-08-27T11:35:05;15.82;;;8.90;;
13435;SDS011;6790;49.520;8.504;2022-08-27T11:40:50;7.32;;;6.20;;
13435;SDS011;6790;49.520;8.504;2022-08-27T11:43:45;11.02;;;6.43;;
13435;SDS011;6790;49.520;8.504;2022-08-27T11:46:19;10.18;;;6.93;;
13435;SDS011;6790;49.520;8.504;2022-08-27T11:48:57;14.30;;;7.10;;
13435;SDS011;6790;49.520;8.504;2022-08-27T11:51:33;14.40;;;7.25;;
13435;SDS011;6790;49.520;8.504;2022-08-27T11:54:05;15.05;;;7.82;;
13435;SDS011;6790;49.520;8.504;2022-08-27T11:56:41;7.35;;;6.63;;
13435;SDS011;6790;49.520;8.504;2022-08-27T11:59:18;10.30;;;7.00;;
13435;SDS011;6790;49.520;8.504;2022-08-27T12:01:50;9.75;;;6.85;;
13435;SDS011;6790;49.520;8.504;2022-08-27T12:07:01;8.18;;;6.90;;
13435;SDS011;6790;49.520;8.504;2022-08-27T12:09:46;9.23;;;6.47;;
13435;SDS011;6790;49.520;8.504;2022-08-27T12:12:32;8.20;;;7.15;;
13435;SDS011;6790;49.520;8.504;2022-08-27T12:15:23;8.55;;;6.57;;
13435;SDS011;6790;49.520;8.504;2022-08-27T12:24:49;8.88;;;6.45;;
13435;SDS011;6790;49.520;8.504;2022-08-27T12:37:54;7.57;;;6.10;;
13435;SDS011;6790;49.520;8.504;2022-08-27T12:40:49;6.82;;;6.13;;
13435;SDS011;6790;49.520;8.504;2022-08-27T12:43:18;10.68;;;6.72;;
13435;SDS011;6790;49.520;8.504;2022-08-27T12:45:50;10.38;;;6.68;;
13435;SDS011;6790;49.520;8.504;2022-08-27T12:48:24;9.13;;;6.72;;
13435;SDS011;6790;49.520;8.504;2022-08-27T12:50:55;8.43;;;6.13;;
13435;SDS011;6790;49.520;8.504;2022-08-27T13:05:00;7.80;;;5.95;;
13435;SDS011;6790;49.520;8.504;2022-08-27T13:07:30;7.10;;;5.75;;
13435;SDS011;6790;49.520;8.504;2022-08-27T13:13:03;6.32;;;5.65;;
13435;SDS011;6790;49.520;8.504;2022-08-27T13:15:47;11.27;;;6.45;;
13435;SDS011;6790;49.520;8.504;2022-08-27T13:18:22;6.80;;;5.65;;
13435;SDS011;6790;49.520;8.504;2022-08-27T13:20:49;11.52;;;6.00;;
13435;SDS011;6790;49.520;8.504;2022-08-27T13:23:29;6.10;;;5.50;;
13435;SDS011;6790;49.520;8.504;2022-08-27T13:26:19;8.40;;;5.95;;
13435;SDS011;6790;49.520;8.504;2022-08-27T13:28:46;6.53;;;5.47;;
13435;SDS011;6790;49.520;8.504;2022-08-27T13:31:13;8.52;;;5.78;;
13435;SDS011;6790;49.520;8.504;2022-08-27T13:33:40;6.05;;;5.50;;
13435;SDS011;6790;49.520;8.504;2022-08-27T13:36:08;6.53;;;5.85;;
13435;SDS011;6790;49.520;8.504;2022-08-27T13:38:40;12.18;;;5.53;;
13435;SDS011;6790;49.520;8.504;2022-08-27T13:43:44;6.95;;;5.15;;
13435;SDS011;6790;49.520;8.504;2022-08-27T13:46:14;6.18;;;5.45;;
13435;SDS011;6790;49.520;8.504;2022-08-27T13:48:46;5.97;;;5.30;;
13435;SDS011;6790;49.520;8.504;2022-08-27T13:51:56;5.85;;;5.25;;
13435;SDS011;6790;49.520;8.504;2022-08-27T13:54:09;6.72;;;5.50;;
13435;SDS011;6790;49.520;8.504;2022-08-27T13:56:38;5.75;;;4.90;;
13435;SDS011;6790;49.520;8.504;2022-08-27T13:59:12;12.32;;;9.68;;
13435;SDS011;6790;49.520;8.504;2022-08-27T14:04:46;6.80;;;5.55;;
13435;SDS011;6790;49.520;8.504;2022-08-27T14:07:34;6.20;;;5.60;;
13435;SDS011;6790;49.520;8.504;2022-08-27T14:12:44;6.55;;;5.55;;
13435;SDS011;6790;49.520;8.504;2022-08-27T14:15:22;7.63;;;5.93;;
13435;SDS011;6790;49.520;8.504;2022-08-27T14:17:58;7.32;;;5.60;;
13435;SDS011;6790;49.520;8.504;2022-08-27T14:20:25;7.90;;;5.68;;
13435;SDS011;6790;49.520;8.504;2022-08-27T14:22:51;6.90;;;5.32;;
13435;SDS011;6790;49.520;8.504;2022-08-27T14:25:17;6.10;;;5.13;;
13435;SDS011;6790;49.520;8.504;2022-08-27T14:27:44;8.20;;;5.80;;
13435;SDS011;6790;49.520;8.504;2022-08-27T14:30:12;6.43;;;5.30;;
13435;SDS011;6790;49.520;8.504;2022-08-27T14:32:41;8.77;;;5.68;;
13435;SDS011;6790;49.520;8.504;2022-08-27T14:35:08;10.05;;;5.63;;
13435;SDS011;6790;49.520;8.504;2022-08-27T14:37:36;6.55;;;4.93;;
13435;SDS011;6790;49.520;8.504;2022-08-27T14:40:04;5.90;;;5.00;;
13435;SDS011;6790;49.520;8.504;2022-08-27T14:42:30;6.47;;;5.50;;
13435;SDS011;6790;49.520;8.504;2022-08-27T14:44:56;5.57;;;5.05;;
13435;SDS011;6790;49.520;8.504;2022-08-27T14:47:21;6.78;;;5.25;;
13435;SDS011;6790;49.520;8.504;2022-08-27T14:49:47;6.30;;;5.22;;
13435;SDS011;6790;49.520;8.504;2022-08-27T14:52:13;5.07;;;4.53;;
13435;SDS011;6790;49.520;8.504;2022-08-27T14:54:39;7.00;;;4.75;;
13435;SDS011;6790;49.520;8.504;2022-08-27T14:57:06;5.60;;;4.78;;
13435;SDS011;6790;49.520;8.504;2022-08-27T14:59:33;6.13;;;5.35;;
13435;SDS011;6790;49.520;8.504;2022-08-27T15:02:00;5.82;;;5.03;;
13435;SDS011;6790;49.520;8.504;2022-08-27T15:04:30;5.50;;;4.93;;
13435;SDS011;6790;49.520;8.504;2022-08-27T15:06:56;6.03;;;5.43;;
13435;SDS011;6790;49.520;8.504;2022-08-27T15:09:23;7.90;;;4.97;;
13435;SDS011;6790;49.520;8.504;2022-08-27T15:11:48;7.30;;;5.35;;
13435;SDS011;6790;49.520;8.504;2022-08-27T15:14:19;6.38;;;5.13;;
13435;SDS011;6790;49.520;8.504;2022-08-27T15:16:48;6.82;;;5.07;;
13435;SDS011;6790;49.520;8.504;2022-08-27T15:19:16;6.20;;;5.00;;
13435;SDS011;6790;49.520;8.504;2022-08-27T15:21:43;7.25;;;5.55;;
13435;SDS011;6790;49.520;8.504;2022-08-27T15:24:13;5.60;;;5.00;;
13435;SDS011;6790;49.520;8.504;2022-08-27T15:26:46;5.63;;;4.82;;
13435;SDS011;6790;49.520;8.504;2022-08-27T15:29:13;6.60;;;5.22;;
13435;SDS011;6790;49.520;8.504;2022-08-27T15:31:39;6.75;;;4.70;;
13435;SDS011;6790;49.520;8.504;2022-08-27T15:34:06;4.90;;;4.40;;
13435;SDS011;6790;49.520;8.504;2022-08-27T15:36:33;5.75;;;5.03;;
13435;SDS011;6790;49.520;8.504;2022-08-27T15:38:59;7.90;;;5.10;;
13435;SDS011;6790;49.520;8.504;2022-08-27T15:41:25;5.85;;;5.10;;
13435;SDS011;6790;49.520;8.504;2022-08-27T15:43:51;6.63;;;5.50;;
13435;SDS011;6790;49.520;8.504;2022-08-27T15:46:17;6.47;;;5.18;;
13435;SDS011;6790;49.520;8.504;2022-08-27T15:48:43;5.70;;;4.70;;
13435;SDS011;6790;49.520;8.504;2022-08-27T15:51:10;7.75;;;5.63;;
13435;SDS011;6790;49.520;8.504;2022-08-27T15:53:37;9.40;;;8.02;;
13435;SDS011;6790;49.520;8.504;2022-08-27T15:56:06;9.15;;;7.28;;
13435;SDS011;6790;49.520;8.504;2022-08-27T15:58:33;8.10;;;5.45;;
13435;SDS011;6790;49.520;8.504;2022-08-27T16:01:03;6.10;;;5.50;;
13435;SDS011;6790;49.520;8.504;2022-08-27T16:03:34;6.38;;;5.68;;
13435;SDS011;6790;49.520;8.504;2022-08-27T16:06:00;10.75;;;6.22;;
13435;SDS011;6790;49.520;8.504;2022-08-27T16:08:26;6.90;;;5.47;;
13435;SDS011;6790;49.520;8.504;2022-08-27T16:10:52;7.05;;;6.35;;
13435;SDS011;6790;49.520;8.504;2022-08-27T16:13:19;6.47;;;5.82;;
13435;SDS011;6790;49.520;8.504;2022-08-27T16:15:45;13.82;;;10.60;;
13435;SDS011;6790;49.520;8.504;2022-08-27T16:18:10;8.75;;;7.03;;
13435;SDS011;6790;49.520;8.504;2022-08-27T16:20:36;8.00;;;5.63;;
13435;SDS011;6790;49.520;8.504;2022-08-27T16:23:02;6.85;;;5.80;;
13435;SDS011;6790;49.520;8.504;2022-08-27T16:25:28;7.35;;;5.45;;
13435;SDS011;6790;49.520;8.504;2022-08-27T16:27:54;7.53;;;5.75;;
13435;SDS011;6790;49.520;8.504;2022-08-27T16:30:24;7.50;;;6.20;;
13435;SDS011;6790;49.520;8.504;2022-08-27T16:32:50;6.70;;;5.40;;
13435;SDS011;6790;49.520;8.504;2022-08-27T16:35:17;5.97;;;5.30;;
13435;SDS011;6790;49.520;8.504;2022-08-27T16:37:44;8.43;;;6.25;;
13435;SDS011;6790;49.520;8.504;2022-08-27T16:40:11;9.30;;;6.10;;
13435;SDS011;6790;49.520;8.504;2022-08-27T16:42:41;8.07;;;5.93;;
13435;SDS011;6790;49.520;8.504;2022-08-27T16:45:11;7.60;;;5.47;;
13435;SDS011;6790;49.520;8.504;2022-08-27T16:47:39;6.68;;;5.45;;